createdAt,value
2018-07-07T01:32:54.828Z,13.51
2018-07-07T01:32:55.400Z,13.58
2018-07-07T01:32:56.000Z,13.58
2018-07-07T01:32:56.599Z,13.56
2018-07-07T01:32:57.199Z,13.56
2018-07-07T01:32:57.801Z,13.55
2018-07-07T01:32:58.422Z,13.54
2018-07-07T01:32:59.001Z,13.58
2018-07-07T01:33:52.482Z,13.59
2018-07-07T01:33:53.052Z,13.70
2018-07-07T01:33:53.650Z,13.58
2018-07-07T01:33:54.253Z,13.62
2018-07-07T01:33:54.850Z,13.70
2018-07-07T01:33:55.450Z,13.59
2018-07-07T01:33:56.050Z,13.71
2018-07-07T01:33:56.650Z,13.59
2018-07-07T01:34:51.157Z,13.55
2018-07-07T01:34:51.728Z,13.59
2018-07-07T01:34:52.327Z,13.65
2018-07-07T01:34:52.927Z,13.63
2018-07-07T01:34:53.526Z,13.62
2018-07-07T01:34:54.126Z,13.58
2018-07-07T01:34:54.727Z,13.61
2018-07-07T01:34:55.327Z,13.59
2018-07-07T01:35:48.809Z,13.54
2018-07-07T01:35:49.382Z,13.58
2018-07-07T01:35:49.981Z,13.59
2018-07-07T01:35:50.582Z,13.62
2018-07-07T01:35:51.181Z,13.59
2018-07-07T01:35:51.783Z,13.59
2018-07-07T01:35:52.381Z,13.52
2018-07-07T01:35:52.981Z,13.67
2018-07-07T01:36:46.461Z,13.51
2018-07-07T01:36:47.034Z,13.59
2018-07-07T01:36:47.633Z,13.61
2018-07-07T01:36:48.232Z,13.62
2018-07-07T01:36:48.833Z,13.67
2018-07-07T01:36:49.433Z,13.65
2018-07-07T01:36:50.034Z,13.63
2018-07-07T01:36:50.634Z,13.71
2018-07-07T01:37:45.171Z,13.65
2018-07-07T01:37:45.718Z,13.62
2018-07-07T01:37:46.325Z,13.62
2018-07-07T01:37:46.985Z,13.62
2018-07-07T01:37:47.564Z,13.65
2018-07-07T01:37:48.121Z,13.63
2018-07-07T01:37:48.722Z,13.67
2018-07-07T01:37:49.381Z,13.65
2018-07-07T01:38:42.790Z,13.55
2018-07-07T01:38:43.363Z,13.59
2018-07-07T01:38:43.963Z,13.63
2018-07-07T01:38:44.562Z,13.63
2018-07-07T01:38:45.163Z,13.63
2018-07-07T01:38:45.763Z,13.61
2018-07-07T01:38:46.362Z,13.62
2018-07-07T01:38:46.963Z,13.59
2018-07-07T01:39:41.465Z,13.58
2018-07-07T01:39:42.037Z,13.51
2018-07-07T01:39:42.636Z,13.55
2018-07-07T01:39:43.238Z,13.54
2018-07-07T01:39:43.836Z,13.58
2018-07-07T01:39:44.437Z,13.55
2018-07-07T01:39:45.038Z,13.54
2018-07-07T01:39:45.638Z,13.70
2018-07-07T01:40:40.142Z,13.67
2018-07-07T01:40:40.714Z,13.65
2018-07-07T01:40:41.316Z,13.65
2018-07-07T01:40:41.913Z,13.61
2018-07-07T01:40:42.512Z,13.62
2018-07-07T01:40:43.114Z,13.63
2018-07-07T01:40:43.713Z,13.63
2018-07-07T01:40:44.313Z,13.58
2018-07-07T01:41:38.818Z,13.62
2018-07-07T01:41:39.391Z,13.69
2018-07-07T01:41:39.988Z,13.67
2018-07-07T01:41:40.588Z,13.65
2018-07-07T01:41:41.187Z,13.65
2018-07-07T01:41:41.790Z,13.63
2018-07-07T01:41:42.387Z,13.67
2018-07-07T01:41:42.986Z,13.67
2018-07-07T01:42:37.494Z,13.76
2018-07-07T01:42:38.066Z,13.71
2018-07-07T01:42:38.665Z,13.59
2018-07-07T01:42:39.264Z,13.65
2018-07-07T01:42:39.867Z,13.67
2018-07-07T01:42:40.466Z,13.70
2018-07-07T01:42:41.065Z,13.73
2018-07-07T01:42:41.664Z,13.67
2018-07-07T01:43:36.168Z,13.76
2018-07-07T01:43:36.745Z,13.79
2018-07-07T01:43:37.339Z,13.73
2018-07-07T01:43:37.938Z,13.79
2018-07-07T01:43:38.539Z,13.69
2018-07-07T01:43:39.139Z,13.73
2018-07-07T01:43:39.739Z,13.71
2018-07-07T01:43:40.338Z,13.69
2018-07-07T01:44:33.821Z,13.70
2018-07-07T01:44:34.394Z,13.73
2018-07-07T01:44:34.994Z,13.80
2018-07-07T01:44:35.596Z,13.69
2018-07-07T01:44:36.193Z,13.73
2018-07-07T01:44:36.792Z,13.70
2018-07-07T01:44:37.394Z,13.71
2018-07-07T01:44:37.992Z,13.76
2018-07-07T01:45:31.473Z,13.79
2018-07-07T01:45:32.050Z,13.76
2018-07-07T01:45:32.645Z,13.79
2018-07-07T01:45:33.245Z,13.76
2018-07-07T01:45:33.845Z,13.80
2018-07-07T01:45:34.446Z,13.76
2018-07-07T01:45:35.046Z,13.76
2018-07-07T01:45:35.645Z,13.77
2018-07-07T01:46:30.154Z,13.77
2018-07-07T01:46:30.719Z,13.83
2018-07-07T01:46:31.326Z,13.79
2018-07-07T01:46:31.918Z,13.77
2018-07-07T01:46:32.519Z,13.77
2018-07-07T01:46:33.118Z,13.79
2018-07-07T01:46:33.719Z,13.79
2018-07-07T01:46:34.318Z,13.77
2018-07-07T01:47:28.828Z,13.83
2018-07-07T01:47:29.397Z,13.77
2018-07-07T01:47:29.996Z,13.79
2018-07-07T01:47:30.596Z,13.83
2018-07-07T01:47:31.196Z,13.83
2018-07-07T01:47:31.796Z,13.81
2018-07-07T01:47:32.396Z,13.79
2018-07-07T01:47:32.996Z,13.79
2018-07-07T01:48:26.477Z,13.76
2018-07-07T01:48:27.050Z,13.92
2018-07-07T01:48:27.649Z,13.87
2018-07-07T01:48:28.249Z,13.79
2018-07-07T01:48:28.849Z,13.79
2018-07-07T01:48:29.448Z,13.88
2018-07-07T01:48:30.050Z,13.89
2018-07-07T01:48:30.651Z,13.83
2018-07-07T01:49:24.127Z,13.83
2018-07-07T01:49:24.704Z,13.76
2018-07-07T01:49:25.303Z,13.92
2018-07-07T01:49:25.900Z,13.88
2018-07-07T01:49:26.500Z,13.89
2018-07-07T01:49:27.101Z,13.88
2018-07-07T01:49:27.702Z,13.76
2018-07-07T01:49:28.302Z,13.88
2018-07-07T01:50:21.781Z,13.76
2018-07-07T01:50:22.353Z,13.76
2018-07-07T01:50:22.953Z,13.80
2018-07-07T01:50:23.553Z,13.79
2018-07-07T01:50:24.151Z,13.88
2018-07-07T01:50:24.752Z,13.83
2018-07-07T01:50:25.352Z,13.88
2018-07-07T01:50:25.957Z,13.84
2018-07-07T01:51:19.433Z,13.91
2018-07-07T01:51:20.006Z,13.88
2018-07-07T01:51:20.610Z,13.87
2018-07-07T01:51:21.204Z,13.88
2018-07-07T01:51:21.805Z,13.96
2018-07-07T01:51:22.404Z,13.83
2018-07-07T01:51:23.004Z,13.92
2018-07-07T01:51:23.604Z,13.91
2018-07-07T01:52:17.083Z,13.88
2018-07-07T01:52:17.656Z,13.88
2018-07-07T01:52:18.255Z,13.89
2018-07-07T01:52:18.857Z,13.94
2018-07-07T01:52:19.456Z,13.91
2018-07-07T01:52:20.056Z,13.92
2018-07-07T01:52:20.657Z,13.92
2018-07-07T01:52:21.256Z,13.88
2018-07-07T01:53:14.736Z,13.92
2018-07-07T01:53:15.308Z,13.91
2018-07-07T01:53:15.908Z,13.94
2018-07-07T01:53:16.515Z,13.94
2018-07-07T01:53:17.107Z,13.94
2018-07-07T01:53:17.709Z,13.96
2018-07-07T01:53:18.315Z,13.92
2018-07-07T01:53:18.907Z,13.95
2018-07-07T01:54:13.922Z,13.91
2018-07-07T01:54:14.496Z,13.96
2018-07-07T01:54:15.095Z,13.95
2018-07-07T01:54:15.695Z,13.94
2018-07-07T01:54:16.296Z,13.98
2018-07-07T01:54:16.894Z,13.96
2018-07-07T01:54:17.495Z,13.95
2018-07-07T01:55:11.065Z,13.92
2018-07-07T01:55:11.637Z,13.99
2018-07-07T01:55:12.235Z,13.87
2018-07-07T01:55:12.837Z,13.96
2018-07-07T01:55:13.437Z,13.99
2018-07-07T01:55:14.036Z,13.92
2018-07-07T01:55:14.636Z,13.94
2018-07-07T01:55:15.236Z,13.92
2018-07-07T01:56:08.715Z,13.87
2018-07-07T01:56:09.287Z,14.06
2018-07-07T01:56:09.887Z,14.02
2018-07-07T01:56:10.487Z,13.92
2018-07-07T01:56:11.087Z,13.94
2018-07-07T01:56:11.687Z,13.94
2018-07-07T01:56:12.289Z,13.95
2018-07-07T01:56:12.887Z,13.98
2018-07-07T01:57:07.390Z,13.94
2018-07-07T01:57:07.966Z,14.07
2018-07-07T01:57:08.562Z,13.98
2018-07-07T01:57:09.161Z,14.01
2018-07-07T01:57:09.763Z,13.95
2018-07-07T01:57:10.362Z,13.98
2018-07-07T01:57:10.962Z,14.01
2018-07-07T01:57:11.561Z,14.07
2018-07-07T01:58:05.053Z,14.06
2018-07-07T01:58:05.616Z,14.09
2018-07-07T01:58:06.214Z,13.99
2018-07-07T01:58:06.817Z,14.04
2018-07-07T01:58:07.414Z,14.06
2018-07-07T01:58:08.014Z,14.01
2018-07-07T01:58:08.618Z,14.02
2018-07-07T01:58:09.214Z,13.98
2018-07-07T01:59:02.697Z,14.06
2018-07-07T01:59:03.265Z,14.02
2018-07-07T01:59:03.865Z,14.06
2018-07-07T01:59:04.467Z,14.14
2018-07-07T01:59:05.065Z,14.06
2018-07-07T01:59:05.666Z,14.14
2018-07-07T01:59:06.269Z,14.04
2018-07-07T01:59:06.864Z,14.10
2018-07-07T02:00:01.369Z,14.10
2018-07-07T02:00:01.943Z,14.10
2018-07-07T02:00:02.541Z,14.01
2018-07-07T02:00:03.141Z,14.14
2018-07-07T02:00:03.740Z,14.10
2018-07-07T02:00:04.343Z,14.10
2018-07-07T02:00:04.943Z,13.99
2018-07-07T02:00:05.540Z,14.07
2018-07-07T02:00:59.022Z,14.07
2018-07-07T02:00:59.595Z,14.01
2018-07-07T02:01:00.207Z,14.04
2018-07-07T02:01:00.801Z,14.01
2018-07-07T02:01:01.396Z,14.12
2018-07-07T02:01:01.993Z,14.01
2018-07-07T02:01:02.593Z,14.16
2018-07-07T02:01:03.192Z,14.14
2018-07-07T02:01:57.697Z,14.10
2018-07-07T02:01:58.268Z,14.01
2018-07-07T02:01:58.868Z,13.98
2018-07-07T02:01:59.467Z,14.16
2018-07-07T02:02:00.068Z,14.01
2018-07-07T02:02:00.668Z,14.06
2018-07-07T02:02:01.267Z,14.16
2018-07-07T02:02:01.868Z,13.94
2018-07-07T02:02:55.348Z,14.14
2018-07-07T02:02:55.921Z,14.10
2018-07-07T02:02:56.521Z,14.14
2018-07-07T02:02:57.122Z,13.99
2018-07-07T02:02:57.722Z,14.01
2018-07-07T02:02:58.320Z,14.04
2018-07-07T02:02:58.920Z,14.04
2018-07-07T02:02:59.520Z,14.01
2018-07-07T02:03:54.027Z,14.01
2018-07-07T02:03:54.596Z,14.06
2018-07-07T02:03:55.197Z,14.14
2018-07-07T02:03:55.796Z,14.06
2018-07-07T02:03:56.395Z,14.16
2018-07-07T02:03:56.995Z,14.01
2018-07-07T02:03:57.598Z,13.98
2018-07-07T02:03:58.196Z,14.12
2018-07-07T02:04:52.700Z,14.06
2018-07-07T02:04:53.272Z,14.02
2018-07-07T02:04:53.872Z,14.09
2018-07-07T02:04:54.470Z,14.01
2018-07-07T02:04:55.071Z,14.01
2018-07-07T02:04:55.672Z,14.06
2018-07-07T02:04:56.272Z,14.04
2018-07-07T02:04:56.871Z,14.06
2018-07-07T02:05:50.351Z,14.09
2018-07-07T02:05:50.925Z,14.04
2018-07-07T02:05:51.524Z,14.10
2018-07-07T02:05:52.129Z,14.07
2018-07-07T02:05:52.725Z,14.07
2018-07-07T02:05:53.324Z,14.16
2018-07-07T02:05:53.924Z,14.17
2018-07-07T02:05:54.528Z,14.06
2018-07-07T02:06:48.004Z,14.06
2018-07-07T02:06:48.576Z,14.19
2018-07-07T02:06:49.176Z,14.12
2018-07-07T02:06:49.777Z,14.09
2018-07-07T02:06:50.375Z,14.13
2018-07-07T02:06:50.976Z,14.13
2018-07-07T02:06:51.576Z,14.14
2018-07-07T02:06:52.178Z,14.13
2018-07-07T02:07:46.678Z,14.09
2018-07-07T02:07:47.252Z,14.12
2018-07-07T02:07:47.852Z,14.06
2018-07-07T02:07:48.457Z,14.13
2018-07-07T02:07:49.049Z,14.07
2018-07-07T02:07:49.657Z,14.09
2018-07-07T02:07:50.250Z,14.09
2018-07-07T02:07:50.849Z,14.19
2018-07-07T02:08:44.331Z,14.07
2018-07-07T02:08:44.903Z,14.09
2018-07-07T02:08:45.504Z,14.09
2018-07-07T02:08:46.105Z,14.14
2018-07-07T02:08:46.705Z,14.17
2018-07-07T02:08:47.303Z,14.09
2018-07-07T02:08:47.905Z,14.12
2018-07-07T02:08:48.504Z,14.14
2018-07-07T02:09:43.008Z,14.09
2018-07-07T02:09:43.577Z,14.16
2018-07-07T02:09:44.179Z,14.07
2018-07-07T02:09:44.777Z,14.14
2018-07-07T02:09:45.377Z,14.17
2018-07-07T02:09:45.978Z,14.14
2018-07-07T02:09:46.579Z,14.12
2018-07-07T02:09:47.176Z,14.14
2018-07-07T02:10:41.682Z,14.17
2018-07-07T02:10:42.256Z,14.10
2018-07-07T02:10:42.853Z,14.12
2018-07-07T02:10:43.453Z,14.06
2018-07-07T02:10:44.054Z,14.12
2018-07-07T02:10:44.654Z,14.09
2018-07-07T02:10:45.254Z,14.14
2018-07-07T02:10:45.854Z,14.06
2018-07-07T02:11:39.333Z,14.10
2018-07-07T02:11:39.909Z,14.10
2018-07-07T02:11:40.506Z,14.09
2018-07-07T02:11:41.106Z,14.04
2018-07-07T02:11:41.706Z,14.07
2018-07-07T02:11:42.307Z,14.09
2018-07-07T02:11:42.906Z,14.09
2018-07-07T02:11:43.506Z,14.09
2018-07-07T02:12:36.987Z,14.10
2018-07-07T02:12:37.559Z,14.09
2018-07-07T02:12:38.160Z,14.01
2018-07-07T02:12:38.758Z,14.09
2018-07-07T02:12:39.362Z,14.02
2018-07-07T02:12:39.957Z,14.01
2018-07-07T02:12:40.558Z,14.12
2018-07-07T02:12:41.156Z,14.01
2018-07-07T02:13:34.637Z,14.04
2018-07-07T02:13:35.215Z,14.04
2018-07-07T02:13:35.812Z,13.99
2018-07-07T02:13:36.410Z,14.02
2018-07-07T02:13:37.012Z,13.99
2018-07-07T02:13:37.609Z,14.10
2018-07-07T02:13:38.211Z,14.02
2018-07-07T02:13:38.809Z,14.04
2018-07-07T02:14:33.312Z,14.16
2018-07-07T02:14:33.885Z,14.10
2018-07-07T02:14:34.484Z,14.10
2018-07-07T02:14:35.085Z,14.02
2018-07-07T02:14:35.685Z,14.02
2018-07-07T02:14:36.285Z,14.09
2018-07-07T02:14:36.888Z,14.10
2018-07-07T02:14:37.485Z,14.14
2018-07-07T02:15:30.966Z,14.17
2018-07-07T02:15:31.538Z,14.01
2018-07-07T02:15:32.138Z,14.02
2018-07-07T02:15:32.738Z,14.09
2018-07-07T02:15:33.337Z,14.14
2018-07-07T02:15:33.938Z,14.01
2018-07-07T02:15:34.539Z,14.12
2018-07-07T02:15:35.137Z,14.02
2018-07-07T02:16:29.640Z,14.02
2018-07-07T02:16:30.213Z,13.99
2018-07-07T02:16:30.815Z,14.13
2018-07-07T02:16:31.412Z,14.01
2018-07-07T02:16:32.013Z,14.17
2018-07-07T02:16:32.612Z,14.12
2018-07-07T02:16:33.213Z,14.17
2018-07-07T02:16:33.812Z,14.12
2018-07-07T02:17:28.316Z,14.01
2018-07-07T02:17:28.888Z,13.99
2018-07-07T02:17:29.491Z,14.02
2018-07-07T02:17:30.088Z,14.13
2018-07-07T02:17:30.687Z,14.10
2018-07-07T02:17:31.287Z,14.10
2018-07-07T02:17:31.889Z,14.12
2018-07-07T02:17:32.487Z,14.02
2018-07-07T02:18:26.990Z,14.02
2018-07-07T02:18:27.565Z,14.14
2018-07-07T02:18:28.164Z,14.07
2018-07-07T02:18:28.763Z,14.19
2018-07-07T02:18:29.365Z,14.02
2018-07-07T02:18:29.963Z,14.02
2018-07-07T02:18:30.563Z,14.02
2018-07-07T02:18:31.163Z,14.17
2018-07-07T02:19:25.667Z,13.99
2018-07-07T02:19:26.239Z,14.02
2018-07-07T02:19:26.842Z,14.04
2018-07-07T02:19:27.439Z,14.16
2018-07-07T02:19:28.038Z,14.04
2018-07-07T02:19:28.641Z,14.12
2018-07-07T02:19:29.239Z,14.10
2018-07-07T02:19:29.837Z,14.02
2018-07-07T02:20:23.320Z,14.04
2018-07-07T02:20:23.892Z,14.14
2018-07-07T02:20:24.492Z,14.10
2018-07-07T02:20:25.092Z,13.99
2018-07-07T02:20:25.692Z,14.04
2018-07-07T02:20:26.294Z,14.16
2018-07-07T02:20:26.891Z,14.10
2018-07-07T02:20:27.491Z,14.04
2018-07-07T02:21:20.974Z,14.10
2018-07-07T02:21:21.544Z,14.12
2018-07-07T02:21:22.147Z,14.13
2018-07-07T02:21:22.749Z,14.10
2018-07-07T02:21:23.345Z,13.94
2018-07-07T02:21:23.948Z,13.99
2018-07-07T02:21:24.548Z,14.12
2018-07-07T02:21:25.144Z,14.06
2018-07-07T02:22:18.627Z,14.07
2018-07-07T02:22:19.196Z,14.09
2018-07-07T02:22:19.796Z,14.09
2018-07-07T02:22:20.396Z,14.04
2018-07-07T02:22:20.996Z,14.07
2018-07-07T02:22:21.600Z,14.04
2018-07-07T02:22:22.196Z,14.07
2018-07-07T02:22:22.796Z,14.02
2018-07-07T02:23:17.298Z,14.09
2018-07-07T02:23:17.870Z,14.12
2018-07-07T02:23:18.470Z,13.96
2018-07-07T02:23:19.070Z,14.16
2018-07-07T02:23:19.669Z,14.07
2018-07-07T02:23:20.270Z,14.06
2018-07-07T02:23:20.871Z,14.02
2018-07-07T02:23:21.470Z,14.01
2018-07-07T02:24:27.647Z,14.12
2018-07-07T02:24:28.221Z,13.99
2018-07-07T02:24:28.820Z,14.02
2018-07-07T02:24:29.418Z,13.98
2018-07-07T02:24:30.020Z,13.98
2018-07-07T02:24:30.620Z,13.96
2018-07-07T02:24:31.217Z,14.12
2018-07-07T02:24:31.819Z,14.02
2018-07-07T02:25:25.300Z,14.06
2018-07-07T02:25:25.874Z,14.01
2018-07-07T02:25:26.471Z,14.10
2018-07-07T02:25:27.071Z,14.12
2018-07-07T02:25:27.671Z,14.01
2018-07-07T02:25:28.270Z,14.16
2018-07-07T02:25:28.870Z,14.13
2018-07-07T02:25:29.471Z,14.12
2018-07-07T02:26:22.951Z,13.92
2018-07-07T02:26:23.524Z,13.96
2018-07-07T02:26:24.124Z,14.01
2018-07-07T02:26:24.725Z,14.01
2018-07-07T02:26:25.328Z,14.06
2018-07-07T02:26:25.927Z,14.07
2018-07-07T02:26:26.522Z,14.06
2018-07-07T02:26:27.121Z,14.10
2018-07-07T02:27:21.641Z,14.10
2018-07-07T02:27:22.200Z,13.96
2018-07-07T02:27:22.798Z,13.98
2018-07-07T02:27:23.399Z,13.98
2018-07-07T02:27:24.000Z,13.99
2018-07-07T02:27:24.599Z,14.04
2018-07-07T02:27:25.199Z,14.01
2018-07-07T02:27:25.798Z,14.01
2018-07-07T02:28:20.303Z,13.94
2018-07-07T02:28:20.874Z,14.14
2018-07-07T02:28:21.473Z,14.02
2018-07-07T02:28:22.074Z,13.99
2018-07-07T02:28:22.673Z,13.98
2018-07-07T02:28:23.274Z,14.12
2018-07-07T02:28:23.876Z,14.16
2018-07-07T02:28:24.473Z,13.98
2018-07-07T02:29:17.954Z,13.98
2018-07-07T02:29:18.527Z,14.04
2018-07-07T02:29:19.127Z,13.98
2018-07-07T02:29:19.727Z,14.10
2018-07-07T02:29:20.326Z,14.10
2018-07-07T02:29:20.927Z,14.01
2018-07-07T02:29:21.529Z,14.12
2018-07-07T02:29:22.124Z,14.13
2018-07-07T02:30:16.632Z,14.04
2018-07-07T02:30:17.204Z,14.06
2018-07-07T02:30:17.801Z,14.10
2018-07-07T02:30:18.402Z,14.06
2018-07-07T02:30:19.003Z,14.06
2018-07-07T02:30:19.602Z,14.02
2018-07-07T02:30:20.203Z,14.12
2018-07-07T02:30:20.802Z,14.13
2018-07-07T02:31:14.288Z,14.13
2018-07-07T02:31:14.854Z,14.14
2018-07-07T02:31:15.453Z,14.02
2018-07-07T02:31:16.054Z,14.13
2018-07-07T02:31:16.652Z,14.10
2018-07-07T02:31:17.254Z,14.14
2018-07-07T02:31:17.853Z,14.04
2018-07-07T02:31:18.453Z,14.01
2018-07-07T02:32:12.957Z,14.12
2018-07-07T02:32:13.532Z,14.12
2018-07-07T02:32:14.130Z,13.96
2018-07-07T02:32:14.731Z,14.04
2018-07-07T02:32:15.330Z,14.14
2018-07-07T02:32:15.931Z,13.96
2018-07-07T02:32:16.533Z,13.95
2018-07-07T02:32:17.132Z,14.06
2018-07-07T02:33:11.633Z,14.06
2018-07-07T02:33:12.204Z,14.09
2018-07-07T02:33:12.810Z,14.09
2018-07-07T02:33:13.405Z,13.99
2018-07-07T02:33:14.007Z,14.07
2018-07-07T02:33:14.609Z,14.07
2018-07-07T02:33:15.206Z,14.07
2018-07-07T02:33:15.804Z,14.02
2018-07-07T02:34:09.284Z,14.01
2018-07-07T02:34:09.859Z,14.06
2018-07-07T02:34:10.462Z,14.09
2018-07-07T02:34:11.060Z,14.07
2018-07-07T02:34:11.664Z,14.06
2018-07-07T02:34:12.257Z,14.01
2018-07-07T02:34:12.856Z,14.09
2018-07-07T02:34:13.457Z,14.01
2018-07-07T02:35:06.937Z,14.10
2018-07-07T02:35:07.510Z,13.94
2018-07-07T02:35:08.109Z,14.02
2018-07-07T02:35:08.715Z,14.09
2018-07-07T02:35:09.309Z,14.06
2018-07-07T02:35:09.909Z,14.06
2018-07-07T02:35:10.509Z,14.09
2018-07-07T02:35:11.108Z,14.12
2018-07-07T02:36:04.590Z,14.09
2018-07-07T02:36:05.162Z,14.07
2018-07-07T02:36:05.760Z,14.02
2018-07-07T02:36:06.362Z,14.09
2018-07-07T02:36:06.962Z,13.92
2018-07-07T02:36:07.563Z,14.06
2018-07-07T02:36:08.160Z,14.10
2018-07-07T02:36:08.763Z,14.02
2018-07-07T02:37:02.242Z,14.06
2018-07-07T02:37:02.813Z,14.09
2018-07-07T02:37:03.416Z,14.09
2018-07-07T02:37:04.012Z,14.10
2018-07-07T02:37:04.613Z,14.12
2018-07-07T02:37:05.214Z,14.09
2018-07-07T02:37:05.815Z,14.10
2018-07-07T02:37:06.412Z,14.01
2018-07-07T02:38:00.918Z,14.04
2018-07-07T02:38:01.489Z,14.06
2018-07-07T02:38:02.088Z,14.06
2018-07-07T02:38:02.689Z,14.02
2018-07-07T02:38:03.288Z,14.06
2018-07-07T02:38:03.888Z,13.99
2018-07-07T02:38:04.488Z,13.99
2018-07-07T02:38:05.088Z,14.02
2018-07-07T02:38:59.594Z,14.09
2018-07-07T02:39:00.163Z,14.01
2018-07-07T02:39:00.763Z,14.02
2018-07-07T02:39:01.365Z,13.96
2018-07-07T02:39:01.964Z,13.98
2018-07-07T02:39:02.563Z,13.98
2018-07-07T02:39:03.164Z,14.10
2018-07-07T02:39:03.763Z,13.96
2018-07-07T02:39:57.244Z,14.04
2018-07-07T02:39:57.816Z,13.96
2018-07-07T02:39:58.417Z,14.02
2018-07-07T02:39:59.015Z,14.04
2018-07-07T02:39:59.615Z,14.01
2018-07-07T02:40:00.218Z,13.99
2018-07-07T02:40:00.816Z,13.99
2018-07-07T02:40:01.419Z,13.99
2018-07-07T02:40:55.918Z,13.89
2018-07-07T02:40:56.491Z,13.98
2018-07-07T02:40:57.090Z,13.96
2018-07-07T02:40:57.691Z,14.04
2018-07-07T02:40:58.291Z,14.01
2018-07-07T02:40:58.897Z,13.98
2018-07-07T02:40:59.491Z,14.01
2018-07-07T02:41:00.092Z,14.07
2018-07-07T02:41:54.595Z,13.94
2018-07-07T02:41:55.167Z,13.95
2018-07-07T02:41:55.767Z,13.95
2018-07-07T02:41:56.367Z,13.92
2018-07-07T02:41:56.966Z,13.92
2018-07-07T02:41:57.566Z,13.92
2018-07-07T02:41:58.169Z,13.91
2018-07-07T02:41:58.766Z,13.94
2018-07-07T02:42:53.270Z,14.04
2018-07-07T02:42:53.842Z,13.94
2018-07-07T02:42:54.443Z,13.89
2018-07-07T02:42:55.043Z,13.98
2018-07-07T02:42:55.642Z,13.89
2018-07-07T02:42:56.241Z,13.98
2018-07-07T02:42:56.845Z,14.06
2018-07-07T02:42:57.443Z,14.02
2018-07-07T02:43:50.921Z,13.92
2018-07-07T02:43:51.494Z,13.96
2018-07-07T02:43:52.093Z,13.95
2018-07-07T02:43:52.695Z,14.01
2018-07-07T02:43:53.297Z,13.92
2018-07-07T02:43:53.894Z,13.91
2018-07-07T02:43:54.503Z,13.98
2018-07-07T02:43:55.097Z,13.95
2018-07-07T02:44:48.575Z,13.94
2018-07-07T02:44:49.146Z,13.94
2018-07-07T02:44:49.747Z,14.01
2018-07-07T02:44:50.347Z,13.94
2018-07-07T02:44:50.945Z,13.95
2018-07-07T02:44:51.549Z,13.91
2018-07-07T02:44:52.144Z,13.96
2018-07-07T02:44:52.744Z,13.98
2018-07-07T02:45:46.225Z,14.04
2018-07-07T02:45:46.799Z,13.98
2018-07-07T02:45:47.399Z,13.99
2018-07-07T02:45:47.998Z,13.95
2018-07-07T02:45:48.599Z,13.95
2018-07-07T02:45:49.199Z,14.06
2018-07-07T02:45:49.800Z,14.02
2018-07-07T02:45:50.398Z,14.01
2018-07-07T02:46:44.901Z,14.01
2018-07-07T02:46:45.475Z,13.99
2018-07-07T02:46:46.073Z,14.04
2018-07-07T02:46:46.674Z,13.95
2018-07-07T02:46:47.273Z,13.99
2018-07-07T02:46:47.873Z,14.01
2018-07-07T02:46:48.475Z,13.94
2018-07-07T02:46:49.073Z,14.01
2018-07-07T02:47:43.579Z,14.02
2018-07-07T02:47:44.151Z,14.06
2018-07-07T02:47:44.750Z,14.13
2018-07-07T02:47:45.353Z,14.04
2018-07-07T02:47:45.951Z,13.99
2018-07-07T02:47:46.550Z,13.99
2018-07-07T02:47:47.153Z,14.01
2018-07-07T02:47:47.748Z,14.06
2018-07-07T02:48:41.231Z,14.12
2018-07-07T02:48:41.805Z,14.07
2018-07-07T02:48:42.401Z,14.10
2018-07-07T02:48:43.001Z,13.92
2018-07-07T02:48:43.603Z,13.98
2018-07-07T02:48:44.201Z,14.10
2018-07-07T02:48:44.800Z,14.02
2018-07-07T02:48:45.401Z,14.10
2018-07-07T02:49:38.883Z,14.06
2018-07-07T02:49:39.455Z,13.94
2018-07-07T02:49:40.057Z,13.95
2018-07-07T02:49:40.654Z,13.99
2018-07-07T02:49:41.253Z,14.04
2018-07-07T02:49:41.853Z,14.07
2018-07-07T02:49:42.456Z,14.12
2018-07-07T02:49:43.052Z,14.09
2018-07-07T02:50:37.626Z,13.98
2018-07-07T02:50:38.131Z,14.16
2018-07-07T02:50:38.733Z,14.01
2018-07-07T02:50:39.332Z,14.01
2018-07-07T02:50:39.933Z,14.07
2018-07-07T02:50:40.531Z,14.12
2018-07-07T02:50:41.131Z,14.01
2018-07-07T02:50:41.731Z,14.01
2018-07-07T02:51:35.208Z,14.06
2018-07-07T02:51:35.796Z,14.14
2018-07-07T02:51:36.383Z,14.10
2018-07-07T02:51:36.984Z,14.02
2018-07-07T02:51:37.581Z,14.06
2018-07-07T02:51:38.183Z,14.14
2018-07-07T02:51:38.781Z,14.02
2018-07-07T02:51:39.380Z,14.02
2018-07-07T02:52:33.883Z,14.14
2018-07-07T02:52:34.457Z,14.19
2018-07-07T02:52:35.058Z,14.14
2018-07-07T02:52:35.656Z,14.13
2018-07-07T02:52:36.256Z,14.17
2018-07-07T02:52:36.859Z,14.13
2018-07-07T02:52:37.457Z,14.16
2018-07-07T02:52:38.055Z,14.10
2018-07-07T02:53:31.537Z,14.17
2018-07-07T02:53:32.109Z,14.17
2018-07-07T02:53:32.710Z,14.14
2018-07-07T02:53:33.309Z,14.10
2018-07-07T02:53:33.912Z,14.20
2018-07-07T02:53:34.509Z,14.12
2018-07-07T02:53:35.108Z,14.13
2018-07-07T02:53:35.710Z,14.20
2018-07-07T02:54:30.211Z,14.17
2018-07-07T02:54:30.782Z,14.17
2018-07-07T02:54:31.384Z,14.13
2018-07-07T02:54:31.985Z,14.17
2018-07-07T02:54:32.585Z,14.17
2018-07-07T02:54:33.183Z,14.24
2018-07-07T02:54:33.785Z,14.17
2018-07-07T02:54:34.383Z,14.17
2018-07-07T02:55:27.864Z,14.13
2018-07-07T02:55:28.436Z,14.17
2018-07-07T02:55:29.036Z,14.19
2018-07-07T02:55:29.636Z,14.10
2018-07-07T02:55:30.235Z,14.12
2018-07-07T02:55:30.837Z,14.13
2018-07-07T02:55:31.435Z,14.12
2018-07-07T02:55:32.040Z,14.12
2018-07-07T02:56:26.540Z,14.16
2018-07-07T02:56:27.112Z,14.16
2018-07-07T02:56:27.710Z,14.12
2018-07-07T02:56:28.311Z,14.17
2018-07-07T02:56:28.911Z,14.10
2018-07-07T02:56:29.512Z,14.13
2018-07-07T02:56:30.110Z,14.12
2018-07-07T02:56:30.711Z,14.17
2018-07-07T02:57:24.191Z,14.19
2018-07-07T02:57:24.788Z,14.16
2018-07-07T02:57:25.365Z,14.19
2018-07-07T02:57:25.966Z,14.17
2018-07-07T02:57:26.564Z,14.17
2018-07-07T02:57:27.162Z,14.20
2018-07-07T02:57:27.764Z,14.19
2018-07-07T02:57:28.363Z,14.06
2018-07-07T02:58:22.866Z,14.12
2018-07-07T02:58:23.439Z,14.10
2018-07-07T02:58:24.037Z,14.16
2018-07-07T02:58:24.638Z,14.14
2018-07-07T02:58:25.237Z,14.12
2018-07-07T02:58:25.839Z,14.12
2018-07-07T02:58:26.438Z,14.09
2018-07-07T02:58:27.038Z,14.07
2018-07-07T02:59:21.541Z,14.09
2018-07-07T02:59:22.114Z,14.09
2018-07-07T02:59:22.717Z,14.10
2018-07-07T02:59:23.316Z,14.12
2018-07-07T02:59:23.914Z,14.07
2018-07-07T02:59:24.563Z,14.14
2018-07-07T02:59:25.115Z,14.12
2018-07-07T02:59:25.720Z,14.12
2018-07-07T03:00:20.218Z,14.12
2018-07-07T03:00:20.791Z,14.09
2018-07-07T03:00:21.391Z,14.10
2018-07-07T03:00:21.990Z,14.09
2018-07-07T03:00:22.589Z,14.06
2018-07-07T03:00:23.189Z,14.09
2018-07-07T03:00:23.790Z,14.09
2018-07-07T03:00:24.389Z,14.09
2018-07-07T03:01:18.894Z,14.02
2018-07-07T03:01:19.465Z,14.12
2018-07-07T03:01:20.064Z,14.02
2018-07-07T03:01:20.666Z,14.13
2018-07-07T03:01:21.265Z,14.04
2018-07-07T03:01:21.865Z,14.01
2018-07-07T03:01:22.464Z,14.06
2018-07-07T03:01:23.065Z,14.02
2018-07-07T03:02:16.545Z,14.04
2018-07-07T03:02:17.118Z,14.02
2018-07-07T03:02:17.718Z,14.01
2018-07-07T03:02:18.318Z,14.01
2018-07-07T03:02:18.917Z,14.02
2018-07-07T03:02:19.516Z,14.02
2018-07-07T03:02:20.120Z,14.01
2018-07-07T03:02:20.716Z,14.01
2018-07-07T03:03:14.214Z,14.02
2018-07-07T03:03:14.808Z,14.04
2018-07-07T03:03:15.440Z,14.02
2018-07-07T03:03:15.991Z,14.02
2018-07-07T03:03:16.638Z,14.16
2018-07-07T03:03:17.196Z,14.09
2018-07-07T03:03:17.863Z,14.02
2018-07-07T03:03:18.387Z,14.02
2018-07-07T03:04:12.874Z,14.06
2018-07-07T03:04:13.445Z,14.16
2018-07-07T03:04:14.045Z,14.04
2018-07-07T03:04:14.645Z,14.19
2018-07-07T03:04:15.244Z,14.10
2018-07-07T03:04:15.846Z,14.06
2018-07-07T03:04:16.444Z,14.07
2018-07-07T03:04:17.044Z,14.06
2018-07-07T03:05:11.548Z,14.13
2018-07-07T03:05:12.121Z,14.17
2018-07-07T03:05:12.721Z,14.09
2018-07-07T03:05:13.319Z,14.16
2018-07-07T03:05:13.920Z,14.06
2018-07-07T03:05:14.522Z,14.16
2018-07-07T03:05:15.125Z,14.12
2018-07-07T03:05:15.723Z,14.19
2018-07-07T03:06:10.225Z,14.14
2018-07-07T03:06:10.796Z,14.16
2018-07-07T03:06:11.399Z,14.14
2018-07-07T03:06:11.996Z,14.19
2018-07-07T03:06:12.595Z,14.07
2018-07-07T03:06:13.194Z,14.13